createdAt,value
2023-02-26T00:02:37.252Z,1.80
2023-02-26T00:07:39.177Z,1.40
2023-02-26T00:12:41.865Z,1.27
2023-02-26T00:17:49.004Z,1.00
2023-02-26T00:22:51.943Z,1.60
2023-02-26T00:27:54.170Z,1.20
2023-02-26T00:32:57.807Z,1.63
2023-02-26T00:38:02.560Z,1.40
2023-02-26T00:43:05.083Z,1.10
2023-02-26T00:48:17.795Z,1.30
2023-02-26T00:53:22.012Z,1.47
2023-02-26T00:58:23.931Z,2.37
2023-02-26T01:03:27.529Z,1.60
2023-02-26T01:08:31.800Z,1.87
2023-02-26T01:13:33.807Z,1.50
2023-02-26T01:18:39.298Z,1.03
2023-02-26T01:23:41.866Z,1.47
2023-02-26T01:28:44.094Z,1.47
2023-02-26T01:33:50.074Z,1.07
2023-02-26T01:38:53.558Z,0.97
2023-02-26T01:44:00.632Z,0.90
2023-02-26T01:49:04.769Z,1.07
2023-02-26T01:54:06.500Z,1.10
2023-02-26T01:59:08.656Z,0.93
2023-02-26T02:04:14.390Z,1.20
2023-02-26T02:09:16.264Z,1.30
2023-02-26T02:14:20.982Z,1.00
2023-02-26T02:19:56.976Z,1.03
2023-02-26T02:25:10.536Z,1.47
2023-02-26T02:30:21.945Z,0.90
2023-02-26T02:35:26.250Z,1.10
2023-02-26T02:40:29.258Z,0.87
2023-02-26T02:45:34.581Z,1.27
2023-02-26T02:50:40.112Z,1.03
2023-02-26T02:55:43.728Z,1.37
2023-02-26T03:00:49.697Z,1.37
2023-02-26T03:05:52.737Z,1.80
2023-02-26T03:10:55.715Z,2.53
2023-02-26T03:16:03.475Z,1.57
2023-02-26T03:21:09.990Z,1.00
2023-02-26T03:26:14.472Z,1.10
2023-02-26T03:31:19.230Z,1.07
2023-02-26T03:36:28.236Z,1.00
2023-02-26T03:41:44.106Z,0.90
2023-02-26T03:46:48.151Z,1.20
2023-02-26T03:51:52.454Z,1.30
2023-02-26T03:57:17.598Z,0.90
2023-02-26T04:02:38.242Z,1.07
2023-02-26T04:07:49.261Z,1.30
2023-02-26T04:12:50.924Z,1.10
2023-02-26T04:17:52.696Z,1.10
2023-02-26T04:22:55.903Z,0.90
2023-02-26T04:27:58.431Z,1.20
2023-02-26T04:33:00.283Z,0.80
2023-02-26T04:38:03.477Z,1.20
2023-02-26T04:43:05.208Z,1.20
2023-02-26T04:48:13.390Z,0.80
2023-02-26T04:53:16.643Z,1.17
2023-02-26T04:58:18.350Z,1.20
2023-02-26T05:03:20.841Z,0.90
2023-02-26T05:08:24.149Z,1.37
2023-02-26T05:13:26.690Z,1.10
2023-02-26T05:18:28.401Z,1.10
2023-02-26T05:23:31.403Z,1.13
2023-02-26T05:28:33.928Z,1.10
2023-02-26T05:33:35.976Z,1.07
2023-02-26T05:38:38.967Z,0.83
2023-02-26T05:43:41.802Z,1.00
2023-02-26T05:48:45.705Z,1.30
2023-02-26T05:53:48.938Z,0.63
2023-02-26T05:58:50.631Z,0.80
2023-02-26T06:03:52.338Z,1.50
2023-02-26T06:08:55.363Z,1.23
2023-02-26T06:13:57.061Z,0.80
2023-02-26T06:18:58.764Z,0.83
2023-02-26T06:24:01.750Z,1.07
2023-02-26T06:29:03.515Z,0.93
2023-02-26T06:34:05.221Z,0.70
2023-02-26T06:39:08.281Z,1.10
2023-02-26T06:44:10.035Z,1.00
2023-02-26T06:49:11.715Z,1.00
2023-02-26T06:54:14.874Z,0.80
2023-02-26T06:59:16.554Z,1.47
2023-02-26T07:04:20.615Z,1.00
2023-02-26T07:09:23.749Z,0.90
2023-02-26T07:14:25.602Z,1.13
2023-02-26T07:19:27.270Z,1.03
2023-02-26T07:24:30.294Z,1.60
2023-02-26T07:29:32.126Z,1.20
2023-02-26T07:34:34.150Z,1.20
2023-02-26T07:39:37.146Z,1.30
2023-02-26T07:44:38.993Z,1.10
2023-02-26T07:49:40.984Z,1.67
2023-02-26T07:54:43.969Z,1.20
2023-02-26T07:59:45.609Z,1.30
2023-02-26T08:04:47.269Z,1.30
2023-02-26T08:09:50.302Z,1.40
2023-02-26T08:14:52.000Z,1.30
2023-02-26T08:19:53.706Z,1.00
2023-02-26T08:24:56.660Z,1.03
2023-02-26T08:29:58.311Z,1.10
2023-02-26T08:34:59.962Z,1.20
2023-02-26T08:40:03.983Z,1.20
2023-02-26T08:45:06.766Z,0.98
2023-02-26T08:50:09.922Z,1.00
2023-02-26T08:55:12.920Z,1.02
2023-02-26T09:00:18.594Z,1.20
2023-02-26T09:05:20.357Z,1.25
2023-02-26T09:10:23.400Z,2.50
2023-02-26T09:15:25.053Z,1.02
2023-02-26T09:20:29.158Z,1.00
2023-02-26T09:25:32.193Z,0.90
2023-02-26T09:30:33.918Z,1.80
2023-02-26T09:35:35.589Z,1.15
2023-02-26T09:40:43.382Z,0.80
2023-02-26T09:45:45.283Z,1.15
2023-02-26T09:50:48.340Z,0.93
2023-02-26T09:55:52.108Z,1.02
2023-02-26T10:01:00.359Z,1.00
2023-02-26T10:06:13.177Z,0.70
2023-02-26T10:11:20.339Z,0.82
2023-02-26T10:16:26.340Z,0.88
2023-02-26T10:21:32.476Z,0.80
2023-02-26T10:26:37.623Z,0.95
2023-02-26T10:31:42.883Z,0.90
2023-02-26T10:36:48.409Z,0.80
2023-02-26T10:41:51.437Z,1.08
2023-02-26T10:46:55.255Z,0.80
2023-02-26T10:51:57.217Z,1.10
2023-02-26T10:57:00.736Z,1.05
2023-02-26T11:02:02.370Z,1.00
2023-02-26T11:07:05.110Z,1.30
2023-02-26T11:12:12.962Z,1.05
2023-02-26T11:17:17.345Z,1.33
2023-02-26T11:22:19.132Z,1.37
2023-02-26T11:27:24.106Z,0.90
2023-02-26T11:32:29.981Z,1.00
2023-02-26T11:37:34.424Z,1.00
2023-02-26T11:42:38.354Z,1.13
2023-02-26T11:47:40.075Z,1.00
2023-02-26T11:52:42.490Z,0.80
2023-02-26T11:57:45.545Z,1.00
2023-02-26T12:02:47.285Z,0.80
2023-02-26T12:07:49.021Z,1.03
2023-02-26T12:13:02.057Z,1.10
2023-02-26T12:18:40.582Z,1.23
2023-02-26T12:24:10.304Z,0.97
2023-02-26T12:29:32.830Z,1.10
2023-02-26T12:34:49.178Z,1.27
2023-02-26T12:39:58.332Z,0.90
2023-02-26T12:45:11.620Z,0.90
2023-02-26T12:50:28.436Z,0.97
2023-02-26T12:55:34.704Z,1.00
2023-02-26T13:00:51.770Z,1.03
2023-02-26T13:06:07.972Z,1.00
2023-02-26T13:11:16.533Z,0.80
2023-02-26T13:16:26.389Z,0.60
2023-02-26T13:21:30.637Z,0.80
2023-02-26T13:26:32.493Z,0.80
2023-02-26T13:31:38.546Z,0.77
2023-02-26T13:36:41.406Z,0.70
2023-02-26T13:41:46.576Z,0.93
2023-02-26T13:46:56.875Z,0.87
2023-02-26T13:51:58.694Z,1.10
2023-02-26T13:57:08.846Z,0.80
2023-02-26T14:02:36.950Z,0.90
2023-02-26T14:07:49.345Z,1.00
2023-02-26T14:13:02.993Z,0.73
2023-02-26T14:18:21.430Z,1.03
2023-02-26T14:23:35.787Z,0.97
2023-02-26T14:28:43.075Z,0.70
2023-02-26T14:33:47.767Z,0.70
2023-02-26T14:38:49.642Z,0.70
2023-02-26T14:43:56.035Z,0.80
2023-02-26T14:48:59.015Z,0.63
2023-02-26T14:54:28.321Z,1.20
2023-02-26T14:59:48.272Z,0.67
2023-02-26T15:05:12.204Z,0.60
2023-02-26T15:10:20.773Z,1.30
2023-02-26T15:15:27.781Z,0.60
2023-02-26T15:20:35.111Z,1.43
2023-02-26T15:25:38.775Z,0.87
2023-02-26T15:30:40.505Z,0.70
2023-02-26T15:35:43.561Z,0.60
2023-02-26T15:40:45.270Z,0.40
2023-02-26T15:45:47.539Z,1.00
2023-02-26T15:50:53.615Z,1.00
2023-02-26T15:55:56.109Z,0.93
2023-02-26T16:01:00.516Z,1.00
2023-02-26T16:06:04.254Z,0.60
2023-02-26T16:11:06.907Z,0.83
2023-02-26T16:16:11.649Z,2.45
2023-02-26T16:21:19.466Z,2.40
2023-02-26T16:26:23.079Z,3.30
2023-02-26T16:31:25.759Z,1.07
2023-02-26T16:36:30.681Z,0.80
2023-02-26T16:41:34.959Z,0.60
2023-02-26T16:46:42.451Z,0.60
2023-02-26T16:51:45.511Z,0.80
2023-02-26T16:56:48.481Z,0.70
2023-02-26T17:01:52.810Z,0.70
2023-02-26T17:06:55.807Z,0.63
2023-02-26T17:12:05.290Z,0.90
2023-02-26T17:17:07.085Z,0.80
2023-02-26T17:22:13.652Z,0.80
2023-02-26T17:27:17.783Z,0.97
2023-02-26T17:32:20.685Z,0.90
2023-02-26T17:37:24.288Z,1.93
2023-02-26T17:42:26.021Z,3.20
2023-02-26T17:47:27.685Z,4.90
2023-02-26T17:52:31.274Z,4.93
2023-02-26T17:57:32.932Z,2.30
2023-02-26T18:02:34.644Z,2.87
2023-02-26T18:07:37.707Z,4.20
2023-02-26T18:12:39.415Z,3.67
2023-02-26T18:17:41.158Z,3.47
2023-02-26T18:22:44.249Z,3.60
2023-02-26T18:27:45.948Z,4.77
2023-02-26T18:32:47.679Z,3.80
2023-02-26T18:37:51.096Z,4.20
2023-02-26T18:42:52.760Z,5.00
2023-02-26T18:47:54.736Z,3.60
2023-02-26T18:52:57.940Z,2.80
2023-02-26T18:57:59.634Z,2.90
2023-02-26T19:03:01.365Z,3.10
2023-02-26T19:08:04.439Z,4.20
2023-02-26T19:13:06.230Z,4.53
2023-02-26T19:18:08.358Z,4.17
2023-02-26T19:23:11.582Z,4.53
2023-02-26T19:28:13.463Z,3.60
2023-02-26T19:33:16.150Z,4.90
2023-02-26T19:38:19.259Z,4.80
2023-02-26T19:43:23.225Z,4.53
2023-02-26T19:48:25.879Z,4.07
2023-02-26T19:53:30.454Z,3.80
2023-02-26T19:58:32.883Z,3.50
2023-02-26T20:03:34.566Z,2.80
2023-02-26T20:08:37.565Z,2.83
2023-02-26T20:13:39.213Z,2.33
2023-02-26T20:18:40.994Z,2.17
2023-02-26T20:23:44.048Z,1.50
2023-02-26T20:28:45.762Z,2.67
2023-02-26T20:33:47.559Z,6.33
2023-02-26T20:38:51.157Z,11.37
2023-02-26T20:43:52.884Z,18.20
2023-02-26T20:48:54.602Z,16.33
2023-02-26T20:53:57.672Z,13.33
2023-02-26T20:58:59.372Z,12.40
2023-02-26T21:04:01.919Z,6.60
2023-02-26T21:09:05.384Z,3.47
2023-02-26T21:14:07.453Z,3.27
2023-02-26T21:19:09.169Z,2.60
2023-02-26T21:24:12.233Z,1.90
2023-02-26T21:29:13.914Z,2.00
2023-02-26T21:34:32.709Z,2.05
2023-02-26T21:39:37.973Z,2.07
2023-02-26T21:44:39.715Z,1.87
2023-02-26T21:49:41.382Z,1.70
2023-02-26T21:54:44.369Z,1.70
2023-02-26T21:59:46.030Z,1.50
2023-02-26T22:04:47.789Z,1.50
2023-02-26T22:09:51.683Z,1.37
2023-02-26T22:14:53.360Z,1.40
2023-02-26T22:19:55.052Z,1.60
2023-02-26T22:24:58.007Z,1.67
2023-02-26T22:29:59.699Z,1.97
2023-02-26T22:35:01.483Z,2.50
2023-02-26T22:40:05.371Z,2.63
2023-02-26T22:45:08.589Z,2.60
2023-02-26T22:50:11.566Z,4.20
2023-02-26T22:55:14.649Z,6.80
2023-02-26T23:00:20.337Z,6.47
2023-02-26T23:05:22.421Z,6.47
2023-02-26T23:10:25.444Z,6.13
2023-02-26T23:15:28.025Z,6.30
2023-02-26T23:20:29.796Z,6.10
2023-02-26T23:25:32.834Z,4.50
2023-02-26T23:30:34.569Z,5.37
2023-02-26T23:35:36.393Z,5.07
2023-02-26T23:40:39.412Z,4.90
2023-02-26T23:45:41.095Z,5.77
2023-02-26T23:50:42.775Z,5.00
2023-02-26T23:55:46.258Z,5.00
